INLO2: Newt Graham Lock And Dam (L&D 18)

Data processed at Wed May 22 2019 23:50


All information presented herein is the property of the government of the United States of America and may be revised or deleted at any time without prior notice.
Dissemination of this information without the expressed written consent of the Public Affairs Office, Tulsa District U.S. Army Corps of Engineers is strictly prohibited.
These data are gathered electronically and, as presented, have not undergone any form of quality control. These data are not guaranteed to be valid or correct.
Go to home page.
Go to station list.
Go to home page.

Upstream stations:

Downstream station:
Previous Day
Next Day
Current Day
    
SHEF ID:       INLO2     Newt Graham LD18
STATION TYPE:  NAVIGATION LOCK
Navigation Pool:  Bottom =   532.00, Top =   532.50

               PRECIP ELEVATION   STORAGE   TW-ELEV LOCK-ELEV    INFLOW   RELEASE    GATE-1    GATE-2    GATE-3  AIR-TEMP  WIND-DIRWIND-SPEED REL-HUMID SOLAR-RAD   VOLTAGE  BAT-LOAD
                   in        ft     ac-ft        ft        ft       cfs       cfs        ft        ft        ft         F       deg       mph         %      W/m2      volt      volt
              Ccp-Rev   Ccp-Rev   Ccp-Rev   Ccp-Rev   Ccp-Rev  Rev-Regi  Rev-Regi   Ccp-Rev   Ccp-Rev   Ccp-Rev   Ccp-Rev   Ccp-Rev   Ccp-Rev   Ccp-Rev   Ccp-Rev   Ccp-Rev   Ccp-Rev
(US/Central)
05/22 00:00      0.00    539.76     36764    535.00      ----    100863    103000      ----      ----      ----     66.52    169.80      8.50     74.97      0.00     12.69     12.41
05/22 01:00      0.00    539.70     36650    535.00      ----    100285    103000      ----      ----      ----     65.86    169.70      8.90     75.28      0.00     12.68     12.41
05/22 02:00      0.00    539.59     36441    534.88      ----     99317    103000      ----      ----      ----     65.68    165.30      7.90     75.04      0.00     12.68     12.41
05/22 03:00      0.00    539.51     36289    534.71      ----     98671    100000      ----      ----      ----     65.46    165.50      7.20     73.19      0.00     12.68     12.41
05/22 04:00      0.00    539.32     35928    534.27      ----     97841    100000      ----      ----      ----     64.76    163.00      5.80     73.51      0.00     12.68     12.41
05/22 05:00      0.00    539.21     35719    534.12      ----     95965    100000      ----      ----      ----     63.18    168.60      5.40     77.17      0.00     12.68     12.41
05/22 06:00      0.00    539.10     35510    534.24      ----     95103    100000      ----      ----      ----     62.44    192.60      5.20     78.67      0.00     12.68     12.41
05/22 07:00      0.00    538.93     35187    533.83      ----     94057     95000      ----      ----      ----     61.57    214.50      4.30     80.15      8.70     12.68     12.41
05/22 08:00      0.00    538.88     35092    533.72      ----     93057     95000      ----      ----      ----     61.83    259.80      2.00     80.59     37.30     12.67     12.41
05/22 09:00      0.00    538.68     34712    533.46      ----     91641     95000      ----      ----      ----     63.54    180.40      2.70     77.59     58.90     12.67     12.41
05/22 10:00      0.00    538.57     34503    533.32      ----     91041     95000      ----      ----      ----     65.88    159.70      4.80     75.78    179.50     12.67     12.41
05/22 11:00      0.00    538.50     34370    533.12      ----     90073     92000      ----      ----      ----     71.06    165.50      8.60     75.33    409.90     12.67     12.41
05/22 12:00      0.00    538.33     34047    532.92      ----     89887     92000      ----      ----      ----     75.16    172.50     10.60     77.19    671.90     12.67     12.41
05/22 13:00      0.00    538.20     33800    532.70      ----     89239     92000      ----      ----      ----     78.15    185.50      8.80     74.06    532.50     12.67     12.41
05/22 14:00      0.00    538.09     33591    532.62      ----     88915     92000      ----      ----      ----     81.12    197.00     10.80     65.92    418.50     12.67     12.41
05/22 15:00      0.00    538.10     33610    532.50      ----     88640     89000      ----      ----      ----     82.80    187.40     10.80     63.70    570.80     12.68     12.41
05/22 16:00      0.00    538.09     33591    532.33      ----     88209     89000      ----      ----      ----     83.03    183.40      9.20     64.45    326.40     12.68     12.41
05/22 17:00      0.00    537.99     33402    532.19      ----     87429     89000      ----      ----      ----     83.46    185.30      7.90     65.51    299.60     12.68     12.41
05/22 18:00      0.00    537.89     33225    532.01      ----     86655     89000      ----      ----      ----     81.52    164.90      6.60     71.10     26.30     12.68     12.41
05/22 19:00      0.05    537.87     33190    532.02      ----     86101     86000      ----      ----      ----     78.58    179.70      4.80     77.27      0.00     12.68     12.41
05/22 20:00      0.00    537.84     33137    532.09      ----     86343     86000      ----      ----      ----     74.59    130.70      3.30     85.20      0.00     12.68     12.41
05/22 21:00      0.00    537.84     33137    531.97      ----     86428     86000      ----      ----      ----     75.04     30.70      3.90     80.61      0.00     12.68     12.41
05/22 22:00      0.00    537.93     33296    532.00      ----     86900     86000      ----      ----      ----     74.50    143.40      4.80     86.22      0.00     12.68     12.41
05/22 23:00      0.00    537.99     33402    532.10      ----     87157     86000      ----      ----      ----     76.50    148.00      5.80     79.89      0.00     12.68     12.41